ET687 / ET-ALO 7700 Squawk Report (15th of September, 2019)

Aircraft B763 Reg No. ET-ALO Age 15 years old
Model 767 Jet engines 2 First flight 07-05-04
Registered 03-06-04 Rollout 26-04-04 Delivered 03-06-04
Construction No. 33768 Line No. 0922 Series 360(ER)
ADSHEX 040015 Airline name Ethiopian Airlines Owner N/A
Airfield based Addis Ababa-International~ ~ET First tracked 2017-07-13 16:34:00

Flight history for ET-ALO

Route Flight No Date Playback
Khartoum (KRT) - Bole Intl (ADD) ET347 2019-10-15 17:13:00
Bole Intl (ADD) - Khartoum (KRT) ET346 2019-10-15 16:08:00
Indira Gandhi Intl (DEL) - Bole Intl (ADD) ET687 2019-10-15 03:21:00
Bole Intl (ADD) - Indira Gandhi Intl (DEL) ET688 2019-10-14 21:43:00
Indira Gandhi Intl (DEL) - Bole Intl (ADD) ET689 2019-10-14 17:21:00
Bole Intl (ADD) - Indira Gandhi Intl (DEL) ET686 2019-10-14 02:33:00
Prince Said Ibrahim (HAH) - Mwalimu Julius K Nyerere Intl (DAR) - Bole Intl (ADD) ET864 2019-10-14 00:53:00
Bole Intl (ADD) - Mwalimu Julius K Nyerere Intl (DAR) - Prince Said Ibrahim (HAH) ET865 2019-10-13 16:14:00
Indira Gandhi Intl (DEL) - Bole Intl (ADD) ET687 2019-10-13 03:34:00
Bole Intl (ADD) - Indira Gandhi Intl (DEL) ET688 2019-10-12 18:52:00
Indira Gandhi Intl (DEL) - Bole Intl (ADD) ET689 2019-10-12 16:08:00
Bole Intl (ADD) - Indira Gandhi Intl (DEL) ET686 2019-10-12 02:32:00
Prince Said Ibrahim (HAH) - Mwalimu Julius K Nyerere Intl (DAR) - Bole Intl (ADD) ET864 2019-10-12 00:48:00
Bole Intl (ADD) - Mwalimu Julius K Nyerere Intl (DAR) - Prince Said Ibrahim (HAH) ET865 2019-10-11 15:20:00
Prince Said Ibrahim (HAH) - Mwalimu Julius K Nyerere Intl (DAR) - Bole Intl (ADD) ET864 2019-10-08 21:59:00
Bole Intl (ADD) - Mwalimu Julius K Nyerere Intl (DAR) - Prince Said Ibrahim (HAH) ET865 2019-10-08 09:00:00
Indira Gandhi Intl (DEL) - Bole Intl (ADD) ET687 2019-10-08 03:13:00
Bole Intl (ADD) - Indira Gandhi Intl (DEL) ET688 2019-10-07 19:16:00
Indira Gandhi Intl (DEL) - Bole Intl (ADD) ET689 2019-10-07 09:49:00
Bole Intl (ADD) - Indira Gandhi Intl (DEL) ET686 2019-10-07 02:19:00
Time Lat Lon Altitude Heading Speed Vertical Rate
2019-09-15 02:22:32 GMT 28.569061 77.076790 1,075 104 153 -832
2019-09-15 02:22:24 GMT 28.570404 77.070938 1,175 105 156 -704
2019-09-15 02:22:13 GMT 28.572554 77.061874 1,325 104 156 -768
2019-09-15 02:22:02 GMT 28.574387 77.053673 1,450 104 158 -832
2019-09-15 02:21:51 GMT 28.576464 77.044479 1,600 105 157 -896
2019-09-15 02:21:40 GMT 28.578415 77.036026 1,750 104 156 -832
2019-09-15 02:21:29 GMT 28.580566 77.026894 1,900 104 156 -896
2019-09-15 02:21:18 GMT 28.582561 77.018089 2,050 104 157 -832
2019-09-15 02:21:06 GMT 28.584658 77.008934 2,200 104 164 -960
2019-09-15 02:20:56 GMT 28.586519 77.000801 2,350 104 170 -960
2019-09-15 02:20:46 GMT 28.588659 76.991325 2,500 104 175 -960
2019-09-15 02:20:35 GMT 28.590988 76.981255 2,675 104 178 -960
2019-09-15 02:20:24 GMT 28.593409 76.971130 2,800 104 179 64
2019-09-15 02:20:13 GMT 28.595642 76.960899 2,775 102 180 192
2019-09-15 02:20:02 GMT 28.597551 76.951469 2,775 104 189 -256
2019-09-15 02:19:50 GMT 28.600113 76.940918 2,825 107 197 -64
2019-09-15 02:19:40 GMT 28.602951 76.930145 2,800 104 197 256
2019-09-15 02:19:28 GMT 28.605011 76.917709 2,775 92 197 -128
2019-09-15 02:19:18 GMT 28.603409 76.906731 2,800 75 197 0
2019-09-15 02:19:06 GMT 28.600616 76.894684 2,800 75 197 0
2019-09-15 02:18:57 GMT 28.598297 76.884804 2,800 74 198 0
2019-09-15 02:18:40 GMT 28.594248 76.867783 2,800 74 199 0
2019-09-15 02:18:34 GMT 28.592850 76.861755 2,800 75 198 0
2019-09-15 02:18:24 GMT 28.590546 76.851845 2,800 75 197 0
2019-09-15 02:18:12 GMT 28.587776 76.840050 2,800 75 196 -192
2019-09-15 02:18:02 GMT 28.585556 76.830612 2,825 74 198 128
2019-09-15 02:17:51 GMT 28.582947 76.819527 2,775 75 207 192
2019-09-15 02:17:39 GMT 28.580200 76.807426 2,775 75 218 -192
2019-09-15 02:17:28 GMT 28.577454 76.795387 2,800 75 219 0
2019-09-15 02:17:17 GMT 28.574509 76.782745 2,775 74 216 64
2019-09-15 02:17:08 GMT 28.571686 76.771614 2,800 71 217 -640
2019-09-15 02:16:57 GMT 28.567572 76.759911 2,900 62 219 -512
2019-09-15 02:16:43 GMT 28.560791 76.746368 3,000 59 221 -384
2019-09-15 02:16:35 GMT 28.556259 76.737389 3,050 60 224 -576
2019-09-15 02:16:23 GMT 28.550446 76.725769 3,150 60 230 -512
2019-09-15 02:16:13 GMT 28.544724 76.714256 3,225 60 236 -512
2019-09-15 02:16:02 GMT 28.539047 76.702896 3,325 60 241 -640
2019-09-15 02:15:50 GMT 28.532936 76.690605 3,450 60 244 -1088
2019-09-15 02:15:39 GMT 28.527008 76.678703 3,650 60 245 -1088
2019-09-15 02:15:30 GMT 28.520786 76.666367 3,825 60 245 -1088
2019-09-15 02:15:17 GMT 28.514271 76.653336 4,025 60 246 -960
2019-09-15 02:15:07 GMT 28.508011 76.640892 4,200 60 248 -1024
2019-09-15 02:14:57 GMT 28.502289 76.629585 4,375 60 247 -1600
2019-09-15 02:14:46 GMT 28.496021 76.617142 4,675 60 247 -1920
2019-09-15 02:14:35 GMT 28.489334 76.603760 5,025 60 249 -1792
2019-09-15 02:14:23 GMT 28.483749 76.592293 5,300 61 250 -1920
2019-09-15 02:14:13 GMT 28.477587 76.579659 5,650 60 249 -2048
2019-09-15 02:14:01 GMT 28.471350 76.566841 6,000 60 249 -1728
2019-09-15 02:13:51 GMT 28.465298 76.554459 6,300 61 248 -1920
2019-09-15 02:13:41 GMT 28.459291 76.542122 6,625 61 246 -1920
2019-09-15 02:13:29 GMT 28.453262 76.529655 6,925 61 247 -1152
2019-09-15 02:13:17 GMT 28.446396 76.515442 7,000 61 251 0
2019-09-15 02:13:07 GMT 28.440536 76.503403 7,000 61 251 0
2019-09-15 02:12:54 GMT 28.433395 76.488609 7,000 61 250 -64
2019-09-15 02:12:46 GMT 28.428955 76.479317 7,000 61 251 64
2019-09-15 02:12:33 GMT 28.421997 76.464897 7,000 61 253 64
2019-09-15 02:12:23 GMT 28.416321 76.452957 6,975 61 263 64
2019-09-15 02:12:12 GMT 28.409546 76.438698 6,975 61 270 -128
2019-09-15 02:12:03 GMT 28.404360 76.427795 7,000 61 275 0
2019-09-15 02:11:51 GMT 28.397144 76.412498 7,000 61 275 0
2019-09-15 02:11:41 GMT 28.391235 76.399979 7,000 61 276 0
2019-09-15 02:11:30 GMT 28.384390 76.385406 7,000 61 276 0
2019-09-15 02:11:14 GMT 28.375351 76.366180 7,000 61 276 -64
2019-09-15 02:11:08 GMT 28.370544 76.355988 7,000 62 276 0
2019-09-15 02:10:57 GMT 28.364185 76.342430 7,000 62 275 0
2019-09-15 02:10:43 GMT 28.355759 76.324554 7,000 61 275 0
2019-09-15 02:10:32 GMT 28.349167 76.310562 7,000 61 275 -64
2019-09-15 02:10:22 GMT 28.342896 76.297249 7,000 61 276 0
2019-09-15 02:10:13 GMT 28.337696 76.286263 7,000 61 276 0
2019-09-15 02:10:00 GMT 28.330948 76.271935 7,000 61 276 0
2019-09-15 02:09:51 GMT 28.325174 76.259659 7,000 61 276 0
2019-09-15 02:09:39 GMT 28.318146 76.244850 7,000 61 276 0
2019-09-15 02:09:29 GMT 28.311264 76.230225 7,000 61 276 0
2019-09-15 02:09:18 GMT 28.304764 76.216492 7,025 61 274 -512
2019-09-15 02:09:07 GMT 28.298080 76.202278 7,150 62 272 -1280
2019-09-15 02:08:56 GMT 28.291983 76.189377 7,325 61 274 -384
2019-09-15 02:08:46 GMT 28.285583 76.175873 7,350 61 276 -64
2019-09-15 02:08:35 GMT 28.278442 76.161186 7,350 61 274 128
2019-09-15 02:08:24 GMT 28.272943 76.147263 7,350 76 276 0
2019-09-15 02:08:13 GMT 28.270243 76.131966 7,375 80 276 -320
2019-09-15 02:08:02 GMT 28.267868 76.116295 7,475 80 276 -1216
2019-09-15 02:07:49 GMT 28.265495 76.099976 7,700 80 276 -1216
2019-09-15 02:07:39 GMT 28.263166 76.084473 7,900 80 278 -1280
2019-09-15 02:07:28 GMT 28.260910 76.069283 8,100 80 277 -1216
2019-09-15 02:07:17 GMT 28.258465 76.052910 8,325 80 277 -1280
2019-09-15 02:07:06 GMT 28.256090 76.036804 8,550 80 277 -1280
2019-09-15 02:06:57 GMT 28.254183 76.023560 8,725 80 278 -1344
2019-09-15 02:06:46 GMT 28.251808 76.007454 8,950 80 278 -448
2019-09-15 02:06:35 GMT 28.249434 75.991249 9,000 80 280 0
2019-09-15 02:06:21 GMT 28.246548 75.971481 9,000 80 281 -64
2019-09-15 02:06:10 GMT 28.244019 75.954292 9,000 80 281 0
2019-09-15 02:05:53 GMT 28.240860 75.932800 9,000 80 281 0
2019-09-15 02:05:34 GMT 28.236540 75.903999 9,000 80 281 0
2019-09-15 02:05:07 GMT 28.230789 75.865349 9,000 80 280 -64
2019-09-15 02:04:57 GMT 28.228638 75.850822 9,000 80 281 0
2019-09-15 02:04:45 GMT 28.226028 75.833397 9,000 80 281 0
2019-09-15 02:04:36 GMT 28.224016 75.819717 9,000 80 280 0
2019-09-15 02:04:25 GMT 28.221689 75.804047 9,000 80 280 0
2019-09-15 02:04:14 GMT 28.217640 75.777336 9,000 80 280 64
2019-09-15 02:04:04 GMT 28.217033 75.773300 9,000 80 280 0
2019-09-15 02:04:01 GMT 28.216429 75.769203 9,000 80 280 0
2019-09-15 02:03:52 GMT 28.213589 75.750031 9,000 80 281 -64
2019-09-15 02:03:42 GMT 28.212332 75.741844 9,000 80 282 -64
2019-09-15 02:03:37 GMT 28.211123 75.733658 9,000 80 284 0
2019-09-15 02:03:31 GMT 28.209869 75.725166 9,000 80 283 0
2019-09-15 02:03:21 GMT 28.207718 75.711121 9,000 80 284 0
2019-09-15 02:03:10 GMT 28.205303 75.694992 9,000 80 284 0
2019-09-15 02:02:59 GMT 28.202957 75.679482 9,000 80 284 0
2019-09-15 02:02:50 GMT 28.200439 75.663055 9,000 80 283 0
2019-09-15 02:02:40 GMT 28.198608 75.650696 9,000 80 283 0
2019-09-15 02:02:33 GMT 28.197157 75.641083 9,000 80 283 0
2019-09-15 02:02:26 GMT 28.195496 75.630257 9,000 80 283 -64
2019-09-15 02:02:20 GMT 28.193893 75.619743 9,000 80 283 0
2019-09-15 02:02:04 GMT 28.190266 75.595467 9,000 80 282 64
2019-09-15 02:01:56 GMT 28.188721 75.585251 9,000 80 282 0
2019-09-15 02:01:42 GMT 28.185984 75.566872 9,000 80 283 -64
2019-09-15 02:01:19 GMT 28.180397 75.530144 9,000 80 281 0
2019-09-15 02:01:14 GMT 28.179325 75.523193 9,000 80 282 0
2019-09-15 02:00:58 GMT 28.175882 75.500526 9,000 80 281 0
2019-09-15 02:00:53 GMT 28.174805 75.493240 9,000 80 281 0
2019-09-15 02:00:41 GMT 28.172251 75.476723 9,000 80 282 0
2019-09-15 02:00:26 GMT 28.169085 75.455772 9,000 80 282 0
2019-09-15 01:59:39 GMT 28.158829 75.387871 9,000 80 283 0
2019-09-15 01:59:33 GMT 28.157501 75.379150 9,000 80 282 0
2019-09-15 01:59:26 GMT 28.155716 75.367477 9,000 80 282 0
2019-09-15 01:59:23 GMT 28.155258 75.364273 9,000 80 282 -64
2019-09-15 01:59:13 GMT 28.152969 75.349419 9,000 80 283 0
2019-09-15 01:58:41 GMT 28.145737 75.302193 9,000 79 281 128
2019-09-15 01:58:16 GMT 28.140036 75.266098 9,175 79 280 -1216
2019-09-15 01:57:25 GMT 28.128771 75.192047 10,000 80 283 0
2019-09-15 01:56:23 GMT 28.114805 75.101570 10,000 80 283 0
2019-09-15 01:56:08 GMT 28.111315 75.079330 10,000 79 283 -64
2019-09-15 01:56:01 GMT 28.109848 75.070320 10,000 79 283 0
We lost coverage of the aircraft here for a total of 12 minutes
2019-09-15 01:44:13 GMT 27.983459 73.965561 14,125 93 350 -2816
2019-09-15 01:43:19 GMT 28.027332 73.882896 16,675 159 362 -2816
2019-09-15 01:43:15 GMT 28.033035 73.879730 16,850 159 362 -2816
2019-09-15 01:42:17 GMT 28.132076 73.874115 19,475 182 381 -3456
2019-09-15 01:42:13 GMT 28.138779 73.874290 19,675 182 382 -3456
2019-09-15 01:42:01 GMT 28.160065 73.874870 20,325 182 383 -3392
2019-09-15 01:41:37 GMT 28.203999 73.876160 21,525 182 390 -3008
2019-09-15 01:40:53 GMT 28.285048 73.878105 23,675 182 402 -3328
2019-09-15 01:40:48 GMT 28.294031 73.878319 23,925 182 405 -3072
2019-09-15 01:40:16 GMT 28.355392 73.879410 25,925 181 417 -3520
2019-09-15 01:40:09 GMT 28.370041 73.879463 25,925 181 417 -3520
2019-09-15 01:40:04 GMT 28.378601 73.879517 26,175 181 419 -3264
2019-09-15 01:39:56 GMT 28.393745 73.880150 26,550 186 421 -3136
2019-09-15 01:39:02 GMT 28.491577 73.925308 29,350 220 437 -3840
2019-09-15 01:38:52 GMT 28.506123 73.940628 29,950 228 438 -4032
2019-09-15 01:38:37 GMT 28.525818 73.968201 30,900 237 440 -4032
2019-09-15 01:38:31 GMT 28.532099 73.979561 31,250 241 442 -3904
2019-09-15 01:38:18 GMT 28.543644 74.006332 32,025 248 444 -4032
2019-09-15 01:38:09 GMT 28.549789 74.026688 32,600 255 447 -3968
2019-09-15 01:37:59 GMT 28.554474 74.050072 33,225 262 449 -3776
2019-09-15 01:37:49 GMT 28.556534 74.074577 33,750 269 455 -2048
2019-09-15 01:37:28 GMT 28.557266 74.124596 34,000 270 460 0
2019-09-15 01:36:57 GMT 28.558029 74.199394 33,975 270 460 -64
2019-09-15 01:36:47 GMT 28.558355 74.223526 34,000 270 460 0
2019-09-15 01:36:36 GMT 28.558588 74.249588 33,975 270 460 64
2019-09-15 01:36:25 GMT 28.558868 74.275185 33,975 270 460 0
2019-09-15 01:36:15 GMT 28.559189 74.301224 33,975 270 459 0
2019-09-15 01:36:04 GMT 28.559464 74.326263 34,000 270 459 64
2019-09-15 01:35:54 GMT 28.559752 74.351860 33,975 270 459 0
2019-09-15 01:35:43 GMT 28.559984 74.377869 33,975 270 459 0
2019-09-15 01:35:32 GMT 28.560217 74.402969 33,975 270 459 0
2019-09-15 01:35:21 GMT 28.560543 74.429947 33,975 270 459 0
2019-09-15 01:35:11 GMT 28.560822 74.454025 33,975 270 459 0
2019-09-15 01:35:00 GMT 28.561008 74.480034 33,975 270 458 0
2019-09-15 01:34:49 GMT 28.561241 74.506966 33,975 270 458 0
2019-09-15 01:34:39 GMT 28.561432 74.530510 33,975 270 458 0
2019-09-15 01:34:29 GMT 28.561613 74.555969 34,000 270 458 0
2019-09-15 01:34:17 GMT 28.561844 74.583328 34,000 270 457 0
2019-09-15 01:34:08 GMT 28.561987 74.606865 33,975 270 457 0
2019-09-15 01:33:57 GMT 28.562164 74.633186 33,975 270 457 0
2019-09-15 01:33:46 GMT 28.562450 74.659531 33,975 270 456 0
2019-09-15 01:33:36 GMT 28.562683 74.682526 33,975 270 456 0
2019-09-15 01:33:25 GMT 28.562824 74.708382 33,975 270 456 0
2019-09-15 01:33:05 GMT 28.563196 74.757225 34,000 270 456 0
2019-09-15 01:32:54 GMT 28.563429 74.783073 34,000 270 456 0
2019-09-15 01:32:44 GMT 28.563662 74.807953 33,975 270 456 64
2019-09-15 01:32:33 GMT 28.563858 74.833321 33,975 270 456 0
2019-09-15 01:32:22 GMT 28.564133 74.859200 33,975 270 456 0
2019-09-15 01:32:12 GMT 28.564362 74.884132 33,975 270 457 0
2019-09-15 01:32:00 GMT 28.564636 74.911919 33,975 270 457 0
2019-09-15 01:31:50 GMT 28.564865 74.936844 33,975 270 457 -64
2019-09-15 01:31:39 GMT 28.565140 74.963676 34,000 270 457 0
2019-09-15 01:31:29 GMT 28.565290 74.986160 34,000 270 456 0
2019-09-15 01:31:18 GMT 28.565369 75.012535 33,975 270 456 0
2019-09-15 01:31:08 GMT 28.565323 75.037415 33,975 271 456 0
2019-09-15 01:30:57 GMT 28.565186 75.063293 33,975 270 456 0
2019-09-15 01:30:46 GMT 28.565277 75.089127 33,975 270 456 64
2019-09-15 01:30:36 GMT 28.565414 75.114052 33,975 270 456 0
2019-09-15 01:30:26 GMT 28.565523 75.138458 33,975 270 456 0
2019-09-15 01:30:15 GMT 28.565598 75.163864 33,975 270 456 64
2019-09-15 01:30:04 GMT 28.565758 75.189247 33,975 270 456 0
2019-09-15 01:29:54 GMT 28.565872 75.214622 33,975 270 456 0
2019-09-15 01:29:42 GMT 28.565964 75.243355 33,975 270 456 64
2019-09-15 01:29:33 GMT 28.566055 75.265381 33,975 270 456 0
2019-09-15 01:29:22 GMT 28.566130 75.290764 33,975 270 456 0
2019-09-15 01:29:11 GMT 28.566238 75.317085 33,950 270 456 0
2019-09-15 01:29:01 GMT 28.566269 75.341545 33,950 270 457 0
2019-09-15 01:28:50 GMT 28.566330 75.366951 33,950 270 458 -64
2019-09-15 01:28:40 GMT 28.566362 75.392441 33,975 270 459 -64
2019-09-15 01:28:29 GMT 28.566456 75.417427 33,975 270 459 -64
2019-09-15 01:28:08 GMT 28.566559 75.468048 34,000 270 459 64
2019-09-15 01:27:58 GMT 28.566641 75.493576 33,950 270 459 704
2019-09-15 01:27:47 GMT 28.566689 75.518562 33,800 270 459 1472
2019-09-15 01:27:36 GMT 28.566689 75.544632 33,550 270 459 1408
2019-09-15 01:27:30 GMT 28.566742 75.564384 33,375 270 460 1408
2019-09-15 01:27:26 GMT 28.566734 75.569672 33,325 270 460 1408
2019-09-15 01:27:15 GMT 28.566780 75.595741 33,100 270 460 1344
2019-09-15 01:27:05 GMT 28.566788 75.621323 32,875 270 460 1408
2019-09-15 01:26:54 GMT 28.566833 75.646469 32,650 270 460 1536
2019-09-15 01:26:44 GMT 28.566874 75.672050 32,375 270 461 1600
2019-09-15 01:26:33 GMT 28.566925 75.697701 32,125 271 461 1536
2019-09-15 01:26:22 GMT 28.566833 75.723846 31,875 271 462 1856
2019-09-15 01:26:12 GMT 28.566833 75.749039 31,525 270 464 2112
2019-09-15 01:26:01 GMT 28.566879 75.774445 31,125 270 467 1664
2019-09-15 01:25:51 GMT 28.566919 75.800385 30,925 270 467 1664
2019-09-15 01:25:40 GMT 28.566919 75.825912 30,675 270 468 1600
2019-09-15 01:25:30 GMT 28.566971 75.851936 30,400 270 468 1600
2019-09-15 01:25:27 GMT 28.566967 75.860329 30,325 270 476 2240
2019-09-15 01:25:19 GMT 28.566971 75.878502 30,150 270 469 1600
2019-09-15 01:24:58 GMT 28.566919 75.931145 29,325 270 476 2240
2019-09-15 01:24:21 GMT 28.566919 76.026306 28,450 270 476 2240
2019-09-15 01:24:13 GMT 28.566874 76.046234 28,175 271 479 2048
2019-09-15 01:23:58 GMT 28.566828 76.079353 27,750 271 479 2048
2019-09-15 01:23:48 GMT 28.566734 76.105530 27,475 271 480 1536
2019-09-15 01:23:38 GMT 28.566559 76.130180 27,250 271 479 1408
2019-09-15 01:23:26 GMT 28.566362 76.162827 26,975 271 478 1472
2019-09-15 01:23:18 GMT 28.566130 76.183830 26,775 271 476 1472
2019-09-15 01:23:11 GMT 28.565943 76.197830 26,650 272 475 1472
2019-09-15 01:23:07 GMT 28.565710 76.211784 26,525 272 475 1472
2019-09-15 01:23:02 GMT 28.565552 76.219292 26,475 272 474 1536
2019-09-15 01:22:56 GMT 28.565231 76.236191 26,300 271 474 1536
2019-09-15 01:22:51 GMT 28.565094 76.246178 26,200 271 473 1536
2019-09-15 01:22:45 GMT 28.565012 76.263535 26,050 271 473 1472
2019-09-15 01:22:34 GMT 28.564453 76.290352 25,800 274 471 1536
2019-09-15 01:22:23 GMT 28.562256 76.316475 25,550 280 470 1280
2019-09-15 01:22:13 GMT 28.557796 76.345123 25,325 283 469 1280
2019-09-15 01:22:01 GMT 28.551727 76.372307 25,075 287 467 1472
2019-09-15 01:21:49 GMT 28.543396 76.400085 24,825 292 465 1472
2019-09-15 01:21:38 GMT 28.534012 76.424171 24,550 295 463 1472
2019-09-15 01:21:28 GMT 28.525864 76.444557 24,350 295 460 1600
2019-09-15 01:21:18 GMT 28.513229 76.476250 24,000 295 458 1472
2019-09-15 01:21:06 GMT 28.507101 76.491554 23,825 295 457 1472
2019-09-15 01:20:56 GMT 28.497650 76.515144 23,550 295 454 1792
2019-09-15 01:20:45 GMT 28.487549 76.540344 23,250 295 453 1600
2019-09-15 01:20:32 GMT 28.476288 76.568367 22,925 295 450 1792
2019-09-15 01:20:23 GMT 28.468184 76.588600 22,675 295 449 1792
2019-09-15 01:20:13 GMT 28.459030 76.611259 22,375 295 447 1856
2019-09-15 01:20:02 GMT 28.449936 76.633896 22,075 295 445 1792
2019-09-15 01:19:54 GMT 28.444441 76.647469 21,900 295 444 1856
2019-09-15 01:19:51 GMT 28.441044 76.655922 21,800 295 443 1920
2019-09-15 01:19:43 GMT 28.435410 76.669884 21,600 295 443 1920
2019-09-15 01:19:39 GMT 28.431454 76.679619 21,475 295 441 1920
2019-09-15 01:19:33 GMT 28.426895 76.691017 21,300 295 440 1856
2019-09-15 01:19:27 GMT 28.421127 76.705330 21,125 295 440 1728
2019-09-15 01:19:23 GMT 28.417786 76.713722 21,025 295 439 1856
2019-09-15 01:19:19 GMT 28.413252 76.725014 20,875 295 437 1984
2019-09-15 01:19:12 GMT 28.409088 76.735489 20,700 295 437 1984
2019-09-15 01:19:07 GMT 28.403458 76.749695 20,500 295 435 1856
2019-09-15 01:19:01 GMT 28.400162 76.758041 20,400 295 434 1728
2019-09-15 01:18:57 GMT 28.394852 76.771301 20,225 295 433 1792
2019-09-15 01:18:51 GMT 28.391235 76.780380 20,125 295 431 1920
2019-09-15 01:18:44 GMT 28.384689 76.796913 19,875 295 430 1984
2019-09-15 01:18:40 GMT 28.382898 76.801437 19,825 295 429 1920
2019-09-15 01:18:34 GMT 28.376495 76.817413 19,600 295 427 1600
2019-09-15 01:18:30 GMT 28.374054 76.823517 19,525 295 426 1472
2019-09-15 01:18:23 GMT 28.367340 76.840118 19,350 295 421 1280
2019-09-15 01:18:19 GMT 28.365051 76.845718 19,300 295 421 1280
2019-09-15 01:18:13 GMT 28.358459 76.862129 19,150 295 417 1280
2019-09-15 01:18:09 GMT 28.357040 76.865685 19,125 295 414 1280
2019-09-15 01:18:02 GMT 28.351196 76.880333 17,900 295 409 1280
2019-09-15 01:17:58 GMT 28.348358 76.887390 18,900 295 408 1280
2019-09-15 01:17:50 GMT 28.342445 76.902145 18,750 295 405 1280
2019-09-15 01:17:47 GMT 28.340469 76.907150 18,700 295 402 1152
2019-09-15 01:17:39 GMT 28.333973 76.923630 18,550 294 396 1408
2019-09-15 01:17:29 GMT 28.323166 76.951988 18,175 293 389 1536
2019-09-15 01:17:18 GMT 28.317856 76.966202 17,900 290 377 2176
2019-09-15 01:17:07 GMT 28.310465 76.986588 17,750 290 377 2176
2019-09-15 01:16:57 GMT 28.305588 77.005074 17,300 283 376 3584
2019-09-15 01:16:44 GMT 28.302704 77.028580 16,725 274 379 3200
2019-09-15 01:16:33 GMT 28.303389 77.051208 16,175 260 377 2496
2019-09-15 01:16:22 GMT 28.307205 77.070435 15,775 252 375 2816
2019-09-15 01:16:12 GMT 28.313782 77.089851 15,275 249 374 3008
2019-09-15 01:16:01 GMT 28.320288 77.108513 14,825 249 373 2560
2019-09-15 01:15:51 GMT 28.327269 77.128059 14,400 249 371 2816
2019-09-15 01:15:39 GMT 28.334244 77.147896 13,925 249 368 2944
2019-09-15 01:15:28 GMT 28.341608 77.169098 13,450 249 367 3072
2019-09-15 01:15:18 GMT 28.348251 77.188042 12,900 249 365 2880
2019-09-15 01:15:08 GMT 28.355026 77.207161 12,400 248 362 2816
2019-09-15 01:14:57 GMT 28.361858 77.225754 11,950 248 360 2496
2019-09-15 01:14:45 GMT 28.368942 77.245613 11,525 249 354 1920
2019-09-15 01:14:35 GMT 28.376894 77.264473 11,250 238 343 1536
2019-09-15 01:14:24 GMT 28.387508 77.279449 11,000 224 334 1344
2019-09-15 01:14:13 GMT 28.400869 77.290108 10,800 205 319 1344
2019-09-15 01:14:02 GMT 28.415222 77.296532 10,500 200 309 3008
2019-09-15 01:13:54 GMT 28.426332 77.300987 10,075 200 309 3200
2019-09-15 01:13:51 GMT 28.430374 77.302551 9,925 200 308 3008
2019-09-15 01:13:40 GMT 28.445232 77.308258 9,450 199 304 2496
2019-09-15 01:13:29 GMT 28.460403 77.313957 8,975 198 300 2880
2019-09-15 01:13:21 GMT 28.469208 77.316658 8,700 192 296 2496
2019-09-15 01:13:18 GMT 28.474869 77.317604 8,525 185 292 2304
2019-09-15 01:13:11 GMT 28.483732 77.317413 8,325 172 285 1984
2019-09-15 01:13:04 GMT 28.491413 77.315636 8,125 163 279 2432
2019-09-15 01:13:00 GMT 28.496979 77.313377 7,925 156 274 3072
2019-09-15 01:12:54 GMT 28.503469 77.309448 7,650 146 273 2816
2019-09-15 01:12:48 GMT 28.508730 77.304924 7,450 138 274 2368
2019-09-15 01:12:44 GMT 28.513618 77.299049 7,225 128 274 2560
2019-09-15 01:12:38 GMT 28.517296 77.292854 7,025 119 273 3008
2019-09-15 01:12:33 GMT 28.520416 77.285385 6,725 111 271 3328
2019-09-15 01:12:28 GMT 28.522522 77.277779 6,475 105 270 2688
2019-09-15 01:12:21 GMT 28.524261 77.270119 6,225 104 266 2496
2019-09-15 01:12:16 GMT 28.525953 77.262863 6,025 104 262 2368
2019-09-15 01:12:10 GMT 28.527603 77.255699 5,825 104 256 1920
2019-09-15 01:12:06 GMT 28.529022 77.249466 5,675 104 253 1984
2019-09-15 01:12:01 GMT 28.530579 77.242813 5,500 104 248 2496
2019-09-15 01:11:55 GMT 28.532286 77.235504 5,250 105 245 2752
2019-09-15 01:11:50 GMT 28.533875 77.228813 5,050 105 243 2112
2019-09-15 01:11:43 GMT 28.535385 77.222427 4,900 105 239 1280
2019-09-15 01:11:38 GMT 28.537220 77.214554 4,800 104 227 704
2019-09-15 01:11:33 GMT 28.538292 77.209976 4,750 104 217 1216
2019-09-15 01:11:28 GMT 28.539921 77.202919 4,625 104 211 1280
2019-09-15 01:11:22 GMT 28.541245 77.197182 4,525 105 204 1280
2019-09-15 01:11:17 GMT 28.542574 77.191666 4,400 105 196 1280
2019-09-15 01:11:12 GMT 28.543625 77.187141 4,300 104 190 1920
2019-09-15 01:11:06 GMT 28.545040 77.181160 4,100 104 187 2496
2019-09-15 01:10:54 GMT 28.547508 77.170120 3,625 104 186 2496
2019-09-15 01:10:47 GMT 28.549044 77.163765 3,375 107 183 2368
2019-09-15 01:10:42 GMT 28.550116 77.159676 3,200 107 183 2368
2019-09-15 01:10:33 GMT 28.552582 77.150574 2,850 105 179 2240
2019-09-15 01:10:22 GMT 28.554724 77.140396 2,425 101 175 2560
2019-09-15 01:10:12 GMT 28.556540 77.131027 2,000 104 176 2880
2019-09-15 01:10:01 GMT 28.558681 77.122032 1,550 105 177 2368

Making use of Plane Finder data

You are free to use the raw flight data, aircraft information and images provided in this report for your own purposes provided the data is correctly attributed to Plane Finder. We ask that you please credit Plane Finder and link to planefinder.net in close proximity to the content.

Optionally one of the following logos (no smaller then 150x24px) can be used and must link to planefinder.net

Embedding the Plane Finder map

You are welcome to embed the Plane Finder playback map on your website to offer visitors a more interactive experience. We suggest using the following HTML code:

<iframe src="//planefinder.net/data/report/ET687-ET-ALO-7700-squawk-2019-09-15/map" width="800" height="600" seamless="seamless"></iframe>

Where our data comes from

Plane Finder has a global network of data feeds and antenna radars that receive data broadcast directly from aircraft. The primary technologies used are ADS-B and MLAT. We also show feeds from the FAA and a FLARM glider feed.

Click here to find out more about the Plane Finder network.

How we collect our data